createdAt,value
2023-08-01T00:00:12.115Z,18.25
2023-08-01T00:03:00.337Z,18.27
2023-08-01T00:05:28.582Z,18.29
2023-08-01T00:07:56.507Z,18.31
2023-08-01T00:10:24.531Z,18.34
2023-08-01T00:12:52.579Z,18.37
2023-08-01T00:15:20.811Z,18.41
2023-08-01T00:17:48.855Z,18.44
2023-08-01T00:20:17.152Z,18.46
2023-08-01T00:22:45.564Z,18.47
2023-08-01T00:25:13.825Z,18.50
2023-08-01T00:27:41.880Z,18.54
2023-08-01T00:30:10.537Z,18.56
2023-08-01T00:32:39.296Z,18.57
2023-08-01T00:35:07.951Z,18.60
2023-08-01T00:37:36.079Z,18.62
2023-08-01T00:40:04.597Z,18.64
2023-08-01T00:42:37.898Z,18.65
2023-08-01T00:45:06.961Z,18.67
2023-08-01T00:47:35.827Z,18.68
2023-08-01T00:50:04.438Z,18.70
2023-08-01T00:52:33.442Z,18.70
2023-08-01T00:55:01.588Z,18.71
2023-08-01T00:57:30.428Z,18.73
2023-08-01T00:59:58.758Z,18.74
2023-08-01T01:02:28.603Z,18.75
2023-08-01T01:04:56.984Z,18.75
2023-08-01T01:07:25.182Z,18.76
2023-08-01T01:09:53.439Z,18.75
2023-08-01T01:12:21.437Z,18.75
2023-08-01T01:14:49.549Z,18.75
2023-08-01T01:17:17.870Z,18.76
2023-08-01T01:19:46.346Z,18.77
2023-08-01T01:22:16.123Z,18.77
2023-08-01T01:24:46.718Z,18.77
2023-08-01T01:27:33.269Z,18.76
2023-08-01T01:30:02.782Z,18.76
2023-08-01T01:32:31.042Z,18.76
2023-08-01T01:34:59.251Z,18.76
2023-08-01T01:37:27.268Z,18.76
2023-08-01T01:39:55.390Z,18.77
2023-08-01T01:42:23.436Z,18.78
2023-08-01T01:44:51.857Z,18.78
2023-08-01T01:47:19.786Z,18.77
2023-08-01T01:49:47.837Z,18.78
2023-08-01T01:52:16.002Z,18.77
2023-08-01T01:54:44.154Z,18.77
2023-08-01T01:57:12.174Z,18.76
2023-08-01T01:59:40.242Z,18.76
2023-08-01T02:02:08.222Z,18.76
2023-08-01T02:04:36.681Z,18.76
2023-08-01T02:07:04.983Z,18.75
2023-08-01T02:09:33.489Z,18.74
2023-08-01T02:12:01.487Z,18.74
2023-08-01T02:14:29.471Z,18.74
2023-08-01T02:16:57.471Z,18.74
2023-08-01T02:19:25.528Z,18.75
2023-08-01T02:21:55.056Z,18.74
2023-08-01T02:24:23.047Z,18.73
2023-08-01T02:26:51.936Z,18.72
2023-08-01T02:29:20.011Z,18.71
2023-08-01T02:31:48.009Z,18.70
2023-08-01T02:34:16.292Z,18.69
2023-08-01T02:36:44.338Z,18.69
2023-08-01T02:39:13.551Z,18.70
2023-08-01T02:41:41.480Z,18.69
2023-08-01T02:44:10.048Z,18.69
2023-08-01T02:46:38.416Z,18.68
2023-08-01T02:49:06.564Z,18.68
2023-08-01T02:51:35.435Z,18.66
2023-08-01T02:54:03.663Z,18.64
2023-08-01T02:56:31.534Z,18.62
2023-08-01T02:59:00.603Z,18.57
2023-08-01T03:01:28.957Z,18.52
2023-08-01T03:03:57.078Z,18.48
2023-08-01T03:06:25.084Z,18.44
2023-08-01T03:08:53.092Z,18.40
2023-08-01T03:11:21.072Z,18.36
2023-08-01T03:13:49.054Z,18.32
2023-08-01T03:16:17.252Z,18.31
2023-08-01T03:18:45.253Z,18.30
2023-08-01T03:21:13.985Z,18.30
2023-08-01T03:23:42.138Z,18.29
2023-08-01T03:26:10.338Z,18.27
2023-08-01T03:28:38.371Z,18.25
2023-08-01T03:31:08.018Z,18.22
2023-08-01T03:33:36.197Z,18.20
2023-08-01T03:36:05.242Z,18.19
2023-08-01T03:38:33.626Z,18.16
2023-08-01T03:41:02.253Z,18.14
2023-08-01T03:43:30.247Z,18.12
2023-08-01T03:45:58.292Z,18.12
2023-08-01T03:48:26.321Z,18.12
2023-08-01T03:50:54.276Z,18.11
2023-08-01T03:53:22.236Z,18.12
2023-08-01T03:55:50.293Z,18.13
2023-08-01T03:58:18.297Z,18.12
2023-08-01T04:05:06.582Z,18.13
2023-08-01T04:07:34.575Z,18.12
2023-08-01T04:10:03.850Z,18.13
2023-08-01T04:12:35.543Z,18.12
2023-08-01T04:15:03.915Z,18.13
2023-08-01T04:17:32.002Z,18.14
2023-08-01T04:20:00.177Z,18.17
2023-08-01T04:22:28.398Z,18.22
2023-08-01T04:24:57.444Z,18.27
2023-08-01T04:27:25.588Z,18.33
2023-08-01T04:29:53.921Z,18.41
2023-08-01T04:34:37.769Z,18.59
2023-08-01T04:37:05.635Z,18.71
2023-08-01T04:39:33.455Z,18.86
2023-08-01T04:42:01.658Z,19.01
2023-08-01T04:44:30.833Z,19.14
2023-08-01T04:46:58.689Z,19.27
2023-08-01T04:49:26.688Z,19.42
2023-08-01T04:51:55.186Z,19.58
2023-08-01T04:54:23.225Z,19.73
2023-08-01T04:56:51.231Z,19.91
2023-08-01T04:59:19.231Z,20.27
2023-08-01T05:01:47.226Z,21.10
2023-08-01T05:04:15.176Z,22.20
2023-08-01T05:06:43.130Z,23.27
2023-08-01T05:09:11.022Z,24.25
2023-08-01T05:11:38.871Z,24.68
2023-08-01T05:14:07.080Z,24.56
2023-08-01T05:16:34.927Z,24.28
2023-08-01T05:19:02.791Z,23.99
2023-08-01T05:21:30.762Z,23.73
2023-08-01T05:23:58.868Z,23.43
2023-08-01T05:26:27.039Z,23.14
2023-08-01T05:28:55.008Z,22.88
2023-08-01T05:31:22.976Z,22.72
2023-08-01T05:33:50.906Z,22.56
2023-08-01T05:36:18.944Z,22.42
2023-08-01T05:38:46.866Z,22.33
2023-08-01T05:41:14.974Z,22.31
2023-08-01T05:43:42.972Z,22.29
2023-08-01T05:46:11.517Z,22.34
2023-08-01T05:48:39.523Z,22.39
2023-08-01T05:51:11.144Z,22.44
2023-08-01T05:53:45.242Z,22.45
2023-08-01T05:56:13.385Z,22.47
2023-08-01T05:58:41.356Z,22.41
2023-08-01T06:01:10.259Z,22.36
2023-08-01T06:03:40.011Z,22.30
2023-08-01T06:06:08.144Z,22.26
2023-08-01T06:08:36.197Z,22.21
2023-08-01T06:11:04.408Z,22.18
2023-08-01T06:13:32.303Z,22.18
2023-08-01T06:16:00.309Z,22.16
2023-08-01T06:18:28.283Z,22.15
2023-08-01T06:20:56.639Z,22.14
2023-08-01T06:23:24.535Z,22.13
2023-08-01T06:25:52.407Z,22.11
2023-08-01T06:28:20.347Z,22.08
2023-08-01T06:30:48.854Z,22.10
2023-08-01T06:33:17.378Z,22.15
2023-08-01T06:35:45.444Z,22.21
2023-08-01T06:38:13.416Z,22.28
2023-08-01T06:40:41.480Z,22.36
2023-08-01T06:43:09.406Z,22.45
2023-08-01T06:45:37.693Z,22.58
2023-08-01T06:48:05.866Z,22.72
2023-08-01T06:50:34.133Z,22.83
2023-08-01T06:53:02.182Z,22.94
2023-08-01T06:55:30.281Z,23.05
2023-08-01T06:57:58.416Z,23.18
2023-08-01T07:00:26.516Z,23.27
2023-08-01T07:02:54.586Z,23.34
2023-08-01T07:05:22.735Z,23.44
2023-08-01T07:07:50.609Z,23.53
2023-08-01T07:10:18.760Z,23.59
2023-08-01T07:12:46.832Z,23.65
2023-08-01T07:15:15.807Z,23.68
2023-08-01T07:17:43.625Z,23.65
2023-08-01T07:20:12.324Z,23.59
2023-08-01T07:22:40.620Z,23.55
2023-08-01T07:25:10.227Z,23.52
2023-08-01T07:27:39.183Z,23.54
2023-08-01T07:30:07.648Z,23.59
2023-08-01T07:32:35.518Z,23.70
2023-08-01T07:35:07.756Z,23.78
2023-08-01T07:37:35.665Z,23.81
2023-08-01T07:40:06.544Z,23.81
2023-08-01T07:42:34.484Z,23.75
2023-08-01T07:45:02.552Z,23.69
2023-08-01T07:47:30.808Z,23.71
2023-08-01T07:49:58.863Z,23.75
2023-08-01T07:52:26.969Z,23.80
2023-08-01T07:54:57.144Z,23.84
2023-08-01T07:57:25.075Z,23.93
2023-08-01T07:59:52.974Z,24.01
2023-08-01T08:02:21.300Z,24.00
2023-08-01T08:04:49.600Z,24.04
2023-08-01T08:07:17.934Z,24.12
2023-08-01T08:09:46.068Z,24.21
2023-08-01T08:12:14.322Z,24.24
2023-08-01T08:14:42.250Z,24.23
2023-08-01T08:17:10.069Z,24.21
2023-08-01T08:19:38.846Z,24.22
2023-08-01T08:22:06.877Z,24.23
2023-08-01T08:24:36.910Z,24.22
2023-08-01T08:27:06.546Z,24.19
2023-08-01T08:29:34.479Z,24.13
2023-08-01T08:32:02.266Z,24.04
2023-08-01T08:34:30.215Z,23.97
2023-08-01T08:36:58.147Z,23.85
2023-08-01T08:39:26.504Z,23.78
2023-08-01T08:41:54.449Z,23.73
2023-08-01T08:44:22.374Z,23.66
2023-08-01T08:46:54.264Z,23.61
2023-08-01T08:49:22.850Z,23.57
2023-08-01T08:51:50.856Z,23.54
2023-08-01T08:54:19.330Z,23.56
2023-08-01T08:56:47.837Z,23.60
2023-08-01T08:59:16.334Z,23.66
2023-08-01T09:01:44.188Z,23.73
2023-08-01T09:04:12.131Z,23.79
2023-08-01T09:06:50.176Z,23.85
2023-08-01T09:09:19.792Z,23.91
2023-08-01T09:11:51.785Z,23.98
2023-08-01T09:14:20.191Z,24.03
2023-08-01T09:16:49.113Z,24.07
2023-08-01T09:19:21.122Z,24.11
2023-08-01T09:21:49.336Z,24.18
2023-08-01T09:24:19.008Z,24.22
2023-08-01T09:26:48.433Z,24.29
2023-08-01T09:29:21.002Z,24.37
2023-08-01T09:31:50.563Z,24.48
2023-08-01T09:34:22.731Z,24.63
2023-08-01T09:36:51.479Z,24.67
2023-08-01T09:39:20.929Z,24.72
2023-08-01T09:42:02.458Z,24.79
2023-08-01T09:44:30.869Z,24.81
2023-08-01T09:47:05.810Z,24.85
2023-08-01T09:49:34.977Z,24.88
2023-08-01T09:52:02.986Z,24.89
2023-08-01T09:54:31.569Z,24.85
2023-08-01T09:57:00.697Z,24.83
2023-08-01T09:59:28.850Z,24.82
2023-08-01T10:01:58.613Z,24.80
2023-08-01T10:04:34.780Z,24.73
2023-08-01T10:07:09.172Z,24.63
2023-08-01T10:09:37.741Z,24.51
2023-08-01T10:12:06.412Z,24.35
2023-08-01T10:14:34.703Z,24.19
2023-08-01T10:17:03.992Z,24.02
2023-08-01T10:19:34.029Z,23.81
2023-08-01T10:22:02.576Z,23.61
2023-08-01T10:24:31.378Z,23.41
2023-08-01T10:27:09.818Z,23.27
2023-08-01T10:29:37.805Z,23.15
2023-08-01T10:32:07.668Z,23.02
2023-08-01T10:34:36.089Z,22.91
2023-08-01T10:37:04.341Z,22.83
2023-08-01T10:39:32.197Z,22.77
2023-08-01T10:42:01.321Z,22.73
2023-08-01T10:44:29.602Z,22.70
2023-08-01T10:46:58.954Z,22.67
2023-08-01T10:49:40.346Z,22.62
2023-08-01T10:52:20.027Z,22.59
2023-08-01T10:54:48.634Z,22.59
2023-08-01T10:57:18.593Z,22.57
2023-08-01T10:59:46.604Z,22.56
2023-08-01T11:04:36.885Z,22.49
2023-08-01T11:07:05.794Z,22.44
2023-08-01T11:09:33.876Z,22.44
2023-08-01T11:12:02.110Z,22.49
2023-08-01T11:14:31.059Z,22.52
2023-08-01T11:17:01.787Z,22.53
2023-08-01T11:19:31.880Z,22.48
2023-08-01T11:22:11.106Z,22.41
2023-08-01T11:24:39.233Z,22.35
2023-08-01T11:27:07.933Z,22.33
2023-08-01T11:29:41.512Z,22.31
2023-08-01T11:32:09.506Z,22.29
2023-08-01T11:34:43.108Z,22.26
2023-08-01T11:37:13.125Z,22.23
2023-08-01T11:39:41.827Z,22.23
2023-08-01T11:42:15.989Z,22.23
2023-08-01T11:44:45.377Z,22.24
2023-08-01T11:47:17.773Z,22.30
2023-08-01T11:49:50.920Z,22.33
2023-08-01T11:52:26.470Z,22.35
2023-08-01T11:54:58.074Z,22.40
2023-08-01T11:57:26.810Z,22.44
2023-08-01T11:59:57.266Z,22.47
2023-08-01T12:02:27.262Z,22.50
2023-08-01T12:05:10.450Z,22.54
2023-08-01T12:07:38.421Z,22.62
2023-08-01T12:10:07.119Z,22.67
2023-08-01T12:12:47.029Z,22.71
2023-08-01T12:15:16.669Z,22.77
2023-08-01T12:17:44.778Z,22.80
2023-08-01T12:20:13.135Z,22.80
2023-08-01T12:22:41.204Z,22.76
2023-08-01T12:25:11.477Z,22.75
2023-08-01T12:27:39.548Z,22.71
2023-08-01T12:30:08.314Z,22.67
2023-08-01T12:32:38.893Z,22.69
2023-08-01T12:35:07.203Z,22.77
2023-08-01T12:37:35.363Z,22.84
2023-08-01T12:40:05.266Z,22.89
2023-08-01T12:42:33.462Z,22.92
2023-08-01T12:45:01.721Z,22.93
2023-08-01T12:47:30.155Z,22.94
2023-08-01T12:49:58.348Z,22.97
2023-08-01T12:52:27.044Z,23.03
2023-08-01T12:54:55.962Z,23.09
2023-08-01T12:57:24.570Z,23.13
2023-08-01T12:59:52.508Z,23.14
2023-08-01T13:02:20.449Z,23.19
2023-08-01T13:04:49.457Z,23.25
2023-08-01T13:07:17.418Z,23.39
2023-08-01T13:09:46.908Z,23.49
2023-08-01T13:12:14.987Z,23.52
2023-08-01T13:14:42.933Z,23.52
2023-08-01T13:17:11.245Z,23.50
2023-08-01T13:19:39.319Z,23.47
2023-08-01T13:22:07.408Z,23.44
2023-08-01T13:24:35.672Z,23.37
2023-08-01T13:27:04.098Z,23.30
2023-08-01T13:29:32.062Z,23.24
2023-08-01T13:32:00.055Z,23.25
2023-08-01T13:34:27.945Z,23.28
2023-08-01T13:36:56.040Z,23.30
2023-08-01T13:39:24.186Z,23.23
2023-08-01T13:41:52.121Z,23.10
2023-08-01T13:44:20.210Z,22.97
2023-08-01T13:46:49.231Z,22.82
2023-08-01T13:49:17.418Z,22.66
2023-08-01T13:51:45.448Z,22.46
2023-08-01T13:54:14.084Z,22.27
2023-08-01T13:56:42.515Z,22.14
2023-08-01T13:59:10.783Z,22.10
2023-08-01T14:01:39.240Z,22.14
2023-08-01T14:04:07.369Z,22.22
2023-08-01T14:06:35.611Z,22.30
2023-08-01T14:09:04.009Z,22.36
2023-08-01T14:11:31.913Z,22.47
2023-08-01T14:13:59.849Z,22.55
2023-08-01T14:16:28.226Z,22.61
2023-08-01T14:18:56.667Z,22.71
2023-08-01T14:21:24.943Z,22.82
2023-08-01T14:23:52.828Z,22.92
2023-08-01T14:26:20.831Z,22.98
2023-08-01T14:28:49.441Z,23.03
2023-08-01T14:31:17.745Z,23.06
2023-08-01T14:33:45.697Z,23.11
2023-08-01T14:36:13.746Z,23.15
2023-08-01T14:38:42.065Z,23.16
2023-08-01T14:41:18.388Z,23.13
2023-08-01T14:43:58.241Z,23.09
2023-08-01T14:46:26.214Z,23.01
2023-08-01T14:48:54.281Z,22.84
2023-08-01T14:51:22.262Z,22.63
2023-08-01T14:53:50.215Z,22.34
2023-08-01T14:56:18.232Z,22.01
2023-08-01T14:58:46.236Z,21.78
2023-08-01T15:01:15.592Z,21.66
2023-08-01T15:03:44.541Z,21.55
2023-08-01T15:06:12.808Z,21.46
2023-08-01T15:08:41.260Z,21.43
2023-08-01T15:11:09.938Z,21.42
2023-08-01T15:13:37.958Z,21.44
2023-08-01T15:16:11.502Z,21.42
2023-08-01T15:18:41.463Z,21.37
2023-08-01T15:21:09.670Z,21.35
2023-08-01T15:23:37.826Z,21.32
2023-08-01T15:26:05.783Z,21.27
2023-08-01T15:28:33.746Z,21.24
2023-08-01T15:31:10.304Z,21.23
2023-08-01T15:33:40.083Z,21.24
2023-08-01T15:36:09.242Z,21.27
2023-08-01T15:38:39.217Z,21.31
2023-08-01T15:41:09.491Z,21.36
2023-08-01T15:43:40.781Z,21.39
2023-08-01T15:46:10.315Z,21.40
2023-08-01T15:48:39.215Z,21.41
2023-08-01T15:51:08.459Z,21.43
2023-08-01T15:53:36.744Z,21.44
2023-08-01T15:56:07.824Z,21.41
2023-08-01T15:58:35.888Z,21.38
2023-08-01T16:01:04.238Z,21.38
2023-08-01T16:03:32.264Z,21.39
2023-08-01T16:06:02.433Z,21.42
2023-08-01T16:08:30.807Z,21.48
2023-08-01T16:10:58.701Z,21.57
2023-08-01T16:13:26.900Z,21.67
2023-08-01T16:15:55.308Z,21.77
2023-08-01T16:18:23.338Z,21.83
2023-08-01T16:20:52.953Z,21.90
2023-08-01T16:23:20.927Z,21.93
2023-08-01T16:25:49.076Z,21.92
2023-08-01T16:28:17.231Z,21.91
2023-08-01T16:30:45.617Z,21.89
2023-08-01T16:33:14.869Z,21.82
2023-08-01T16:35:42.874Z,21.76
2023-08-01T16:38:10.889Z,21.69
2023-08-01T16:40:39.770Z,21.60
2023-08-01T16:43:07.828Z,21.52
2023-08-01T16:45:35.741Z,21.45
2023-08-01T16:48:05.229Z,21.39
2023-08-01T16:50:33.215Z,21.32
2023-08-01T16:53:01.463Z,21.24
2023-08-01T16:55:29.633Z,21.16
2023-08-01T16:57:58.086Z,21.11
2023-08-01T17:00:26.111Z,21.04
2023-08-01T17:02:54.265Z,20.98
2023-08-01T17:05:22.686Z,20.93
2023-08-01T17:07:50.701Z,20.89
2023-08-01T17:10:18.806Z,20.84
2023-08-01T17:12:46.772Z,20.80
2023-08-01T17:15:14.841Z,20.77
2023-08-01T17:17:42.900Z,20.73
2023-08-01T17:20:11.424Z,20.69
2023-08-01T17:22:39.339Z,20.65
2023-08-01T17:25:07.883Z,20.62
2023-08-01T17:27:35.928Z,20.58
2023-08-01T17:30:04.428Z,20.55
2023-08-01T17:32:32.600Z,20.52
2023-08-01T17:35:00.626Z,20.48
2023-08-01T17:37:28.933Z,20.44
2023-08-01T17:39:57.392Z,20.41
2023-08-01T17:42:25.623Z,20.38
2023-08-01T17:44:54.064Z,20.35
2023-08-01T17:47:22.491Z,20.32
2023-08-01T17:49:50.676Z,20.29
2023-08-01T17:52:18.679Z,20.25
2023-08-01T17:54:47.324Z,20.22
2023-08-01T17:57:15.943Z,20.20
2023-08-01T17:59:43.899Z,20.16
2023-08-01T18:02:12.116Z,20.13
2023-08-01T18:04:44.994Z,20.10
2023-08-01T18:07:13.749Z,20.06
2023-08-01T18:09:41.789Z,20.03
2023-08-01T18:12:10.953Z,20.01
2023-08-01T18:14:38.946Z,19.99
2023-08-01T18:17:07.627Z,19.95
2023-08-01T18:19:35.577Z,19.92
2023-08-01T18:22:04.083Z,19.89
2023-08-01T18:24:33.377Z,19.86
2023-08-01T18:27:01.522Z,19.82
2023-08-01T18:29:30.189Z,19.80
2023-08-01T18:31:59.085Z,19.77
2023-08-01T18:34:27.390Z,19.76
2023-08-01T18:36:55.941Z,19.74
2023-08-01T18:39:25.610Z,19.72
2023-08-01T18:41:55.067Z,19.70
2023-08-01T18:44:23.631Z,19.68
2023-08-01T18:46:53.364Z,19.67
2023-08-01T18:49:21.344Z,19.65
2023-08-01T18:51:49.388Z,19.64
2023-08-01T18:54:17.385Z,19.62
2023-08-01T18:56:45.444Z,19.60
2023-08-01T18:59:13.460Z,19.59
2023-08-01T19:04:45.915Z,19.59
2023-08-01T19:07:13.905Z,19.59
2023-08-01T19:09:41.785Z,19.59
2023-08-01T19:12:10.080Z,19.58
2023-08-01T19:14:37.996Z,19.57
2023-08-01T19:17:05.960Z,19.56
2023-08-01T19:19:33.897Z,19.55
2023-08-01T19:22:01.787Z,19.54
2023-08-01T19:24:29.748Z,19.53
2023-08-01T19:26:57.656Z,19.51
2023-08-01T19:29:26.879Z,19.49
2023-08-01T19:31:54.906Z,19.48
2023-08-01T19:34:22.846Z,19.46
2023-08-01T19:36:52.312Z,19.45
2023-08-01T19:39:22.936Z,19.43
2023-08-01T19:41:50.863Z,19.40
2023-08-01T19:44:19.862Z,19.37
2023-08-01T19:46:47.716Z,19.36
2023-08-01T19:49:15.815Z,19.33
2023-08-01T19:51:44.066Z,19.30
2023-08-01T19:54:12.084Z,19.27
2023-08-01T19:56:40.065Z,19.23
2023-08-01T19:59:08.474Z,19.18
2023-08-01T20:01:36.373Z,19.12
2023-08-01T20:04:04.514Z,19.08
2023-08-01T20:06:33.157Z,19.03
2023-08-01T20:09:01.466Z,18.98
2023-08-01T20:11:29.885Z,18.95
2023-08-01T20:13:57.792Z,18.92
2023-08-01T20:16:25.903Z,18.89
2023-08-01T20:18:54.000Z,18.86
2023-08-01T20:21:21.860Z,18.83
2023-08-01T20:23:50.058Z,18.81
2023-08-01T20:26:18.050Z,18.78
2023-08-01T20:28:46.129Z,18.76
2023-08-01T20:31:14.086Z,18.74
2023-08-01T20:33:42.059Z,18.73
2023-08-01T20:36:10.513Z,18.71
2023-08-01T20:38:38.406Z,18.69
2023-08-01T20:41:13.581Z,18.67
2023-08-01T20:43:41.515Z,18.66
2023-08-01T20:46:09.573Z,18.64
2023-08-01T20:48:37.407Z,18.61
2023-08-01T20:51:05.739Z,18.59
2023-08-01T20:53:33.516Z,18.56
2023-08-01T20:56:01.620Z,18.53
2023-08-01T20:58:29.668Z,18.49
2023-08-01T21:00:59.603Z,18.46
2023-08-01T21:03:28.051Z,18.43
2023-08-01T21:05:56.265Z,18.40
2023-08-01T21:08:24.403Z,18.36
2023-08-01T21:10:53.669Z,18.34
2023-08-01T21:13:21.729Z,18.31
2023-08-01T21:15:49.751Z,18.29
2023-08-01T21:18:17.933Z,18.27
2023-08-01T21:20:45.998Z,18.25
2023-08-01T21:23:14.001Z,18.23
2023-08-01T21:25:41.965Z,18.21
2023-08-01T21:28:11.192Z,18.19
2023-08-01T21:30:39.441Z,18.17
2023-08-01T21:33:07.743Z,18.15
2023-08-01T21:35:35.807Z,18.13
2023-08-01T21:38:03.825Z,18.10
2023-08-01T21:40:31.852Z,18.09
2023-08-01T21:43:00.031Z,18.08
2023-08-01T21:45:30.683Z,18.06
2023-08-01T21:47:59.078Z,18.06
2023-08-01T21:50:27.561Z,18.04
2023-08-01T21:52:55.713Z,18.03
2023-08-01T21:55:24.299Z,18.01
2023-08-01T21:57:52.496Z,17.99
2023-08-01T22:00:20.430Z,17.98
2023-08-01T22:02:48.324Z,17.97
2023-08-01T22:05:17.179Z,17.96
2023-08-01T22:08:14.905Z,17.94
2023-08-01T22:10:54.006Z,17.92
2023-08-01T22:13:23.298Z,17.90
2023-08-01T22:15:52.658Z,17.88
2023-08-01T22:18:26.498Z,17.88
2023-08-01T22:20:56.426Z,17.86
2023-08-01T22:23:25.167Z,17.85
2023-08-01T22:25:54.201Z,17.84
2023-08-01T22:28:24.413Z,17.83
2023-08-01T22:30:53.485Z,17.83
2023-08-01T22:33:21.639Z,17.81
2023-08-01T22:35:49.699Z,17.80
2023-08-01T22:38:17.764Z,17.78
2023-08-01T22:40:45.885Z,17.77
2023-08-01T22:43:16.598Z,17.74
2023-08-01T22:45:44.604Z,17.72
2023-08-01T22:48:12.564Z,17.69
2023-08-01T22:50:40.647Z,17.68
2023-08-01T22:53:09.791Z,17.68
2023-08-01T22:55:38.193Z,17.68
2023-08-01T22:58:06.242Z,17.68
2023-08-01T23:00:34.313Z,17.68
2023-08-01T23:03:02.729Z,17.68
2023-08-01T23:05:30.927Z,17.67
2023-08-01T23:07:59.108Z,17.67
2023-08-01T23:10:38.439Z,17.66
2023-08-01T23:13:12.301Z,17.65
2023-08-01T23:15:40.367Z,17.64
2023-08-01T23:18:08.361Z,17.64
2023-08-01T23:20:36.304Z,17.62
2023-08-01T23:23:04.343Z,17.62
2023-08-01T23:25:32.259Z,17.63
2023-08-01T23:28:00.250Z,17.64
2023-08-01T23:30:28.273Z,17.63
2023-08-01T23:32:56.747Z,17.62
2023-08-01T23:35:24.908Z,17.61
2023-08-01T23:37:53.872Z,17.60
2023-08-01T23:40:22.139Z,17.58
2023-08-01T23:42:53.790Z,17.57
2023-08-01T23:45:21.853Z,17.57
2023-08-01T23:47:49.921Z,17.56
2023-08-01T23:50:17.964Z,17.55
2023-08-01T23:52:46.880Z,17.54
2023-08-01T23:55:15.502Z,17.52
2023-08-01T23:57:43.466Z,17.52
